createdAt,value
2018-11-14T00:01:51.783Z,9.83
2018-11-14T00:04:25.743Z,9.27
2018-11-14T00:12:51.154Z,10.50
2018-11-14T00:15:25.269Z,10.17
2018-11-14T00:17:54.570Z,8.57
2018-11-14T00:20:30.629Z,8.93
2018-11-14T00:23:12.673Z,9.03
2018-11-14T00:25:44.428Z,8.87
2018-11-14T00:28:15.395Z,8.43
2018-11-14T00:30:44.245Z,7.53
2018-11-14T00:33:14.666Z,8.80
2018-11-14T00:35:48.121Z,9.43
2018-11-14T00:38:17.289Z,9.00
2018-11-14T00:40:46.287Z,7.47
2018-11-14T00:43:17.776Z,8.13
2018-11-14T00:45:49.660Z,7.80
2018-11-14T00:48:21.355Z,7.90
2018-11-14T00:50:50.625Z,8.67
2018-11-14T00:53:21.009Z,7.70
2018-11-14T00:55:53.827Z,8.17
2018-11-14T00:58:29.412Z,7.70
2018-11-14T01:00:59.415Z,8.97
2018-11-14T01:10:06.957Z,8.03
2018-11-14T01:12:43.906Z,7.77
2018-11-14T01:15:22.061Z,7.30
2018-11-14T01:18:19.811Z,7.17
2018-11-14T01:20:51.369Z,8.00
2018-11-14T01:23:19.929Z,7.77
2018-11-14T01:25:50.243Z,7.73
2018-11-14T01:28:19.328Z,8.00
2018-11-14T01:30:48.187Z,8.93
2018-11-14T01:33:18.155Z,8.30
2018-11-14T01:35:47.144Z,7.77
2018-11-14T01:38:20.383Z,8.27
2018-11-14T01:40:49.481Z,9.03
2018-11-14T01:43:17.797Z,8.63
2018-11-14T01:45:47.426Z,8.77
2018-11-14T01:48:23.583Z,8.30
2018-11-14T01:50:52.064Z,8.60
2018-11-14T01:53:21.151Z,8.10
2018-11-14T01:55:50.318Z,8.00
2018-11-14T01:58:18.780Z,7.93
2018-11-14T02:00:47.821Z,8.63
2018-11-14T02:03:16.826Z,8.23
2018-11-14T02:05:50.978Z,8.87
2018-11-14T02:08:23.662Z,8.47
2018-11-14T02:11:02.180Z,8.27
2018-11-14T02:13:34.549Z,8.00
2018-11-14T02:16:06.924Z,8.60
2018-11-14T02:18:37.067Z,8.97
2018-11-14T02:21:16.763Z,8.83
2018-11-14T02:23:46.203Z,9.53
2018-11-14T02:26:14.965Z,9.30
2018-11-14T02:28:43.395Z,9.10
2018-11-14T02:31:12.570Z,9.60
2018-11-14T02:33:41.048Z,9.60
2018-11-14T02:36:09.789Z,9.60
2018-11-14T02:38:38.280Z,9.93
2018-11-14T02:41:07.818Z,9.33
2018-11-14T02:43:37.147Z,10.30
2018-11-14T02:46:05.451Z,9.43
2018-11-14T02:48:34.153Z,10.60
2018-11-14T02:51:09.834Z,10.43
2018-11-14T02:53:40.315Z,11.00
2018-11-14T02:56:10.416Z,11.90
2018-11-14T02:58:41.069Z,10.30
2018-11-14T03:01:10.338Z,10.77
2018-11-14T03:03:39.883Z,10.43
2018-11-14T03:06:09.541Z,11.40
2018-11-14T03:08:41.757Z,11.00
2018-11-14T03:11:14.901Z,11.17
2018-11-14T03:13:44.429Z,11.20
2018-11-14T03:16:14.983Z,10.80
2018-11-14T03:18:44.088Z,10.80
2018-11-14T03:21:13.085Z,10.57
2018-11-14T03:23:41.622Z,10.67
2018-11-14T03:26:10.169Z,10.07
2018-11-14T03:28:39.817Z,10.10
2018-11-14T03:31:09.166Z,9.87
2018-11-14T03:33:44.658Z,9.60
2018-11-14T03:36:19.768Z,9.30
2018-11-14T03:38:48.961Z,8.67
2018-11-14T03:41:22.856Z,9.10
2018-11-14T03:43:51.640Z,10.07
2018-11-14T03:46:19.969Z,9.77
2018-11-14T03:48:50.267Z,9.53
2018-11-14T03:51:18.560Z,9.90
2018-11-14T03:53:47.564Z,9.80
2018-11-14T03:56:16.331Z,10.57
2018-11-14T03:58:48.993Z,9.80
2018-11-14T04:01:18.737Z,10.30
2018-11-14T04:03:47.372Z,10.73
2018-11-14T04:06:21.270Z,10.67
2018-11-14T04:08:51.838Z,9.73
2018-11-14T04:11:21.369Z,10.43
2018-11-14T04:13:50.314Z,10.43
2018-11-14T04:16:21.203Z,10.40
2018-11-14T04:18:54.365Z,10.60
2018-11-14T04:21:27.137Z,10.47
2018-11-14T04:23:56.385Z,10.67
2018-11-14T04:26:25.940Z,11.03
2018-11-14T04:28:57.377Z,10.77
2018-11-14T04:31:26.567Z,11.63
2018-11-14T04:33:55.894Z,11.47
2018-11-14T04:36:26.520Z,10.93
2018-11-14T04:38:59.074Z,10.50
2018-11-14T04:41:28.297Z,10.47
2018-11-14T04:43:56.950Z,11.13
2018-11-14T04:46:27.548Z,10.57
2018-11-14T04:48:58.552Z,11.50
2018-11-14T04:51:27.507Z,11.27
2018-11-14T04:53:57.020Z,10.80
2018-11-14T04:56:30.973Z,10.50
2018-11-14T04:59:00.597Z,10.73
2018-11-14T05:01:30.043Z,10.63
2018-11-14T05:03:59.549Z,11.83
2018-11-14T05:06:28.334Z,11.23
2018-11-14T05:08:57.269Z,12.03
2018-11-14T05:11:25.786Z,11.17
2018-11-14T05:13:57.261Z,11.93
2018-11-14T05:16:25.715Z,12.13
2018-11-14T05:18:54.383Z,11.70
2018-11-14T05:21:23.087Z,11.80
2018-11-14T05:23:51.923Z,11.80
2018-11-14T05:26:24.214Z,11.40
2018-11-14T05:28:57.124Z,12.00
2018-11-14T05:31:25.662Z,11.57
2018-11-14T05:33:56.518Z,12.07
2018-11-14T05:36:27.951Z,12.47
2018-11-14T05:38:57.743Z,11.27
2018-11-14T05:41:29.801Z,11.57
2018-11-14T05:43:59.209Z,10.80
2018-11-14T05:46:29.005Z,11.73
2018-11-14T05:49:00.598Z,13.07
2018-11-14T05:51:29.284Z,12.10
2018-11-14T05:53:57.722Z,11.67
2018-11-14T05:56:26.148Z,11.87
2018-11-14T05:58:55.811Z,12.27
2018-11-14T06:01:24.814Z,11.40
2018-11-14T06:03:55.379Z,12.23
2018-11-14T06:06:25.617Z,11.13
2018-11-14T06:08:57.513Z,11.00
2018-11-14T06:11:32.878Z,12.97
2018-11-14T06:14:06.117Z,11.73
2018-11-14T06:16:35.337Z,11.57
2018-11-14T06:19:07.833Z,12.20
2018-11-14T06:21:47.598Z,11.77
2018-11-14T06:24:24.194Z,11.97
2018-11-14T06:29:49.000Z,12.53
2018-11-14T06:35:35.731Z,12.40
2018-11-14T06:38:19.099Z,12.93
2018-11-14T06:40:59.233Z,13.03
2018-11-14T06:43:31.266Z,13.63
2018-11-14T06:46:04.966Z,13.63
2018-11-14T06:48:47.694Z,14.63
2018-11-14T06:57:41.849Z,13.83
2018-11-14T07:11:35.626Z,14.70
2018-11-14T07:14:03.828Z,15.27
2018-11-14T07:16:49.299Z,15.40
2018-11-14T07:19:23.343Z,13.63
2018-11-14T07:22:25.128Z,14.73
2018-11-14T07:25:18.102Z,14.13
2018-11-14T07:28:19.002Z,14.33
2018-11-14T07:30:52.502Z,14.57
2018-11-14T07:33:42.362Z,13.97
2018-11-14T07:49:22.445Z,13.20
2018-11-14T08:01:04.659Z,13.83
2018-11-14T08:12:09.638Z,13.50
2018-11-14T11:06:06.909Z,8.93
2018-11-14T11:11:35.769Z,8.53
2018-11-14T11:59:48.438Z,7.83
2018-11-14T12:50:17.877Z,5.70
2018-11-14T12:52:46.497Z,4.70
2018-11-14T12:55:19.505Z,5.40
2018-11-14T12:57:48.101Z,6.53
2018-11-14T13:00:17.958Z,4.60
2018-11-14T13:02:46.773Z,5.03
2018-11-14T13:05:16.020Z,4.67
2018-11-14T13:07:45.574Z,5.23
2018-11-14T13:10:18.194Z,5.07
2018-11-14T13:12:51.783Z,5.70
2018-11-14T13:15:22.632Z,5.90
2018-11-14T13:17:56.751Z,5.70
2018-11-14T13:20:29.879Z,6.73
2018-11-14T13:22:58.201Z,5.47
2018-11-14T13:25:26.685Z,6.60
2018-11-14T13:27:57.755Z,5.00
2018-11-14T13:30:26.601Z,5.70
2018-11-14T13:32:55.067Z,5.63
2018-11-14T13:35:28.466Z,5.17
2018-11-14T13:37:56.958Z,4.77
2018-11-14T13:40:25.627Z,5.03
2018-11-14T13:42:54.638Z,4.60
2018-11-14T13:45:24.923Z,4.20
2018-11-14T13:47:53.972Z,4.73
2018-11-14T13:50:23.130Z,4.43
2018-11-14T13:52:51.832Z,4.17
2018-11-14T13:55:20.864Z,4.17
2018-11-14T13:57:50.348Z,4.10
2018-11-14T14:00:19.828Z,4.03
2018-11-14T14:02:49.298Z,4.23
2018-11-14T14:05:20.110Z,3.90
2018-11-14T14:07:49.625Z,4.50
2018-11-14T14:10:19.337Z,4.00
2018-11-14T14:12:52.276Z,4.10
2018-11-14T14:18:22.047Z,3.53
2018-11-14T14:20:51.762Z,4.20
2018-11-14T14:23:31.923Z,4.20
2018-11-14T14:26:00.291Z,4.50
2018-11-14T14:28:28.470Z,4.27
2018-11-14T14:30:56.872Z,4.17
2018-11-14T14:33:25.092Z,3.83
2018-11-14T14:35:53.363Z,4.13
2018-11-14T14:38:21.484Z,3.37
2018-11-14T14:40:49.648Z,3.97
2018-11-14T14:43:20.175Z,3.67
2018-11-14T14:46:09.101Z,3.50
2018-11-14T15:09:17.042Z,3.40
2018-11-14T15:18:36.456Z,3.53
2018-11-14T15:24:00.547Z,3.83
2018-11-14T15:33:24.016Z,5.33
2018-11-14T15:47:43.470Z,4.90
2018-11-14T15:50:28.000Z,5.57
2018-11-14T16:18:39.960Z,5.93
2018-11-14T16:21:19.083Z,5.90
2018-11-14T16:24:05.802Z,6.20
2018-11-14T16:26:36.936Z,6.50
2018-11-14T16:29:15.463Z,6.10
2018-11-14T16:31:50.764Z,6.00
2018-11-14T16:34:37.430Z,6.50
2018-11-14T16:40:33.767Z,6.50
2018-11-14T16:43:30.657Z,5.93
2018-11-14T18:44:08.731Z,8.87
2018-11-14T18:46:37.417Z,9.17
2018-11-14T18:49:06.079Z,8.27
2018-11-14T18:51:34.381Z,8.70
2018-11-14T18:54:08.725Z,8.67
2018-11-14T18:56:37.970Z,8.47
2018-11-14T18:59:08.539Z,8.93
2018-11-14T19:01:36.915Z,10.07
2018-11-14T19:04:08.749Z,9.37
2018-11-14T19:06:37.568Z,9.50
2018-11-14T19:09:07.944Z,9.63
2018-11-14T19:11:36.488Z,9.00
2018-11-14T19:14:07.359Z,9.47
2018-11-14T19:16:37.988Z,9.83
2018-11-14T19:19:07.146Z,9.70
2018-11-14T19:21:35.777Z,9.53
2018-11-14T19:24:05.293Z,9.43
2018-11-14T19:26:36.857Z,9.93
2018-11-14T19:29:18.122Z,9.93
2018-11-14T19:31:46.485Z,9.53
2018-11-14T19:34:15.180Z,10.00
2018-11-14T19:36:45.829Z,9.47
2018-11-14T19:39:18.692Z,10.17
2018-11-14T19:41:52.505Z,10.43
2018-11-14T19:44:21.537Z,10.93
2018-11-14T19:46:53.795Z,10.63
2018-11-14T19:49:23.958Z,10.43
2018-11-14T19:51:53.396Z,11.33
2018-11-14T19:54:22.177Z,11.03
2018-11-14T19:56:51.703Z,11.43
2018-11-14T19:59:20.086Z,11.87
2018-11-14T20:01:49.799Z,10.90
2018-11-14T20:04:18.728Z,11.87
2018-11-14T20:06:52.690Z,11.27
2018-11-14T20:09:23.585Z,11.93
2018-11-14T20:11:54.850Z,11.17
2018-11-14T20:14:23.355Z,11.03
2018-11-14T20:16:52.851Z,11.43
2018-11-14T20:19:22.150Z,12.67
2018-11-14T20:21:50.641Z,12.27
2018-11-14T20:24:19.063Z,11.83
2018-11-14T20:26:47.956Z,12.90
2018-11-14T20:29:16.744Z,13.03
2018-11-14T20:34:31.478Z,14.03
2018-11-14T20:37:00.691Z,13.57
2018-11-14T20:39:34.300Z,14.10
2018-11-14T20:42:04.212Z,13.83
